createdAt,value
2022-07-26T00:00:48.236Z,3.30
2022-07-26T00:03:14.610Z,3.33
2022-07-26T00:05:41.488Z,3.53
2022-07-26T00:08:11.038Z,3.33
2022-07-26T00:10:48.841Z,3.28
2022-07-26T00:13:17.465Z,3.63
2022-07-26T00:15:44.790Z,3.05
2022-07-26T00:18:12.036Z,2.92
2022-07-26T00:20:39.006Z,3.38
2022-07-26T00:23:05.477Z,3.42
2022-07-26T00:25:31.854Z,3.17
2022-07-26T00:27:58.328Z,4.03
2022-07-26T00:30:24.759Z,3.22
2022-07-26T00:32:52.890Z,3.15
2022-07-26T00:35:20.172Z,3.35
2022-07-26T00:37:46.784Z,3.35
2022-07-26T00:40:13.843Z,3.88
2022-07-26T00:42:40.347Z,3.60
2022-07-26T00:45:07.898Z,3.00
2022-07-26T00:47:35.017Z,3.40
2022-07-26T00:50:01.911Z,3.70
2022-07-26T00:52:28.446Z,3.55
2022-07-26T00:54:56.162Z,3.60
2022-07-26T00:57:23.074Z,4.20
2022-07-26T00:59:49.594Z,3.20
2022-07-26T01:02:16.144Z,4.03
2022-07-26T01:04:44.716Z,3.20
2022-07-26T01:07:14.578Z,3.50
2022-07-26T01:09:42.547Z,3.88
2022-07-26T01:12:09.153Z,3.80
2022-07-26T01:14:35.511Z,3.22
2022-07-26T01:17:02.011Z,3.42
2022-07-26T01:19:28.412Z,3.53
2022-07-26T01:21:54.945Z,3.50
2022-07-26T01:24:21.286Z,3.53
2022-07-26T01:26:47.771Z,3.63
2022-07-26T01:29:14.184Z,3.17
2022-07-26T01:31:40.748Z,4.05
2022-07-26T01:34:07.344Z,3.05
2022-07-26T01:36:34.015Z,3.28
2022-07-26T01:39:00.431Z,3.30
2022-07-26T01:41:37.322Z,3.40
2022-07-26T01:44:04.306Z,3.85
2022-07-26T01:46:30.733Z,3.65
2022-07-26T01:48:57.163Z,3.83
2022-07-26T01:51:23.548Z,3.95
2022-07-26T01:53:49.876Z,3.80
2022-07-26T01:56:16.484Z,3.55
2022-07-26T01:58:42.910Z,3.08
2022-07-26T02:01:09.426Z,3.75
2022-07-26T02:03:35.991Z,3.30
2022-07-26T02:06:02.930Z,3.80
2022-07-26T02:08:29.909Z,4.00
2022-07-26T02:11:06.433Z,3.28
2022-07-26T02:13:32.800Z,3.35
2022-07-26T02:15:59.542Z,3.92
2022-07-26T02:18:27.312Z,3.83
2022-07-26T02:20:53.945Z,3.88
2022-07-26T02:23:21.048Z,3.58
2022-07-26T02:25:47.804Z,3.97
2022-07-26T02:28:14.885Z,3.35
2022-07-26T02:30:41.683Z,3.50
2022-07-26T02:33:08.133Z,3.38
2022-07-26T02:35:35.136Z,3.40
2022-07-26T02:38:02.742Z,2.95
2022-07-26T02:40:29.467Z,3.03
2022-07-26T02:42:55.845Z,3.20
2022-07-26T02:45:22.269Z,3.38
2022-07-26T02:47:49.528Z,2.80
2022-07-26T02:50:17.145Z,3.05
2022-07-26T02:52:43.586Z,2.72
2022-07-26T02:55:10.052Z,2.75
2022-07-26T02:57:46.513Z,2.65
2022-07-26T03:00:14.427Z,2.95
2022-07-26T03:02:40.831Z,2.42
2022-07-26T03:05:07.767Z,2.50
2022-07-26T03:07:34.131Z,2.58
2022-07-26T03:10:00.575Z,2.20
2022-07-26T03:12:26.981Z,2.20
2022-07-26T03:14:53.431Z,2.33
2022-07-26T03:17:19.901Z,2.35
2022-07-26T03:19:46.238Z,2.33
2022-07-26T03:22:12.561Z,2.35
2022-07-26T03:24:38.840Z,2.88
2022-07-26T03:27:05.167Z,2.28
2022-07-26T03:29:31.784Z,2.00
2022-07-26T03:31:58.140Z,2.20
2022-07-26T03:34:24.576Z,2.10
2022-07-26T03:36:50.949Z,2.50
2022-07-26T03:39:17.288Z,2.30
2022-07-26T03:41:43.628Z,2.88
2022-07-26T03:44:10.396Z,2.20
2022-07-26T03:46:37.056Z,1.92
2022-07-26T03:49:03.618Z,2.55
2022-07-26T03:51:29.971Z,2.40
2022-07-26T03:53:56.682Z,2.22
2022-07-26T03:56:29.163Z,2.13
2022-07-26T03:58:55.665Z,2.10
2022-07-26T04:01:22.204Z,3.13
2022-07-26T04:03:48.587Z,2.05
2022-07-26T04:06:15.276Z,2.05
2022-07-26T04:08:41.916Z,2.38
2022-07-26T04:11:08.261Z,2.08
2022-07-26T04:13:35.434Z,2.10
2022-07-26T04:16:02.303Z,2.30
2022-07-26T04:18:28.914Z,2.45
2022-07-26T04:20:55.279Z,2.03
2022-07-26T04:23:21.733Z,2.42
2022-07-26T04:25:48.008Z,2.30
2022-07-26T04:28:14.565Z,2.30
2022-07-26T04:30:41.601Z,1.92
2022-07-26T04:33:08.016Z,2.00
2022-07-26T04:35:34.367Z,2.33
2022-07-26T04:38:02.248Z,2.10
2022-07-26T04:40:33.392Z,2.17
2022-07-26T20:28:00.400Z,1.20
2022-07-26T20:30:26.732Z,1.10
2022-07-26T20:32:53.092Z,1.20
2022-07-26T20:35:19.418Z,1.45
2022-07-26T20:37:45.835Z,1.80
2022-07-26T20:40:12.697Z,1.23
2022-07-26T20:42:41.986Z,1.20
2022-07-26T20:45:12.894Z,1.60
2022-07-26T20:47:42.883Z,1.10
2022-07-26T20:50:09.991Z,1.23
2022-07-26T20:52:36.351Z,1.38
2022-07-26T20:55:02.824Z,1.17
2022-07-26T20:57:29.200Z,1.20
2022-07-26T20:59:55.494Z,0.93
2022-07-26T21:02:21.823Z,1.20
2022-07-26T21:04:48.230Z,1.20
2022-07-26T21:07:14.691Z,1.00
2022-07-26T21:09:40.987Z,1.27
2022-07-26T21:12:07.615Z,1.23
2022-07-26T21:14:34.071Z,1.70
2022-07-26T21:17:00.520Z,1.10
2022-07-26T21:19:27.019Z,0.80
2022-07-26T21:21:57.004Z,1.10
2022-07-26T21:24:23.473Z,1.42
2022-07-26T21:26:49.763Z,1.10
2022-07-26T21:29:16.220Z,1.15
2022-07-26T21:31:42.472Z,1.27
2022-07-26T21:34:08.833Z,1.05
2022-07-26T21:36:38.008Z,1.17
2022-07-26T21:39:04.353Z,1.38
2022-07-26T21:41:30.656Z,1.20
2022-07-26T21:43:56.924Z,1.20
2022-07-26T21:46:23.333Z,1.10
2022-07-26T21:48:49.925Z,1.02
2022-07-26T21:51:17.219Z,1.13
2022-07-26T21:53:43.573Z,1.20
2022-07-26T21:56:11.271Z,1.30
2022-07-26T21:58:37.967Z,1.23
2022-07-26T22:01:06.875Z,1.80
2022-07-26T22:03:34.959Z,1.10
2022-07-26T22:06:01.239Z,1.17
2022-07-26T22:08:27.588Z,1.13
2022-07-26T22:10:53.863Z,1.40
2022-07-26T22:13:21.166Z,1.10
2022-07-26T22:15:47.870Z,1.20
2022-07-26T22:18:14.405Z,1.38
2022-07-26T22:20:40.986Z,1.52
2022-07-26T22:23:08.505Z,1.10
2022-07-26T22:25:35.240Z,1.10
2022-07-26T22:28:02.385Z,1.40
2022-07-26T22:30:28.759Z,1.58
2022-07-26T22:32:56.388Z,1.10
2022-07-26T22:35:23.664Z,1.10
2022-07-26T22:37:49.996Z,1.20
2022-07-26T22:40:16.569Z,1.88
2022-07-26T22:42:44.555Z,1.10
2022-07-26T22:45:11.715Z,1.20
2022-07-26T22:47:38.093Z,1.35
2022-07-26T22:50:13.291Z,1.98
2022-07-26T22:52:41.573Z,1.52
2022-07-26T22:55:08.131Z,1.05
2022-07-26T22:57:34.476Z,1.73
2022-07-26T23:00:01.456Z,1.10
2022-07-26T23:02:27.766Z,1.40
2022-07-26T23:04:54.049Z,1.60
2022-07-26T23:07:20.468Z,1.27
2022-07-26T23:09:47.868Z,1.25
2022-07-26T23:12:14.142Z,1.25
2022-07-26T23:14:40.490Z,2.03
2022-07-26T23:17:06.882Z,1.27
2022-07-26T23:19:33.384Z,1.50
2022-07-26T23:21:59.645Z,1.30
2022-07-26T23:24:25.935Z,1.38
2022-07-26T23:26:52.248Z,1.55
2022-07-26T23:29:18.627Z,1.38
2022-07-26T23:31:45.010Z,1.17
2022-07-26T23:34:11.387Z,1.50
2022-07-26T23:36:37.773Z,1.15
2022-07-26T23:39:04.494Z,1.65
2022-07-26T23:41:30.832Z,1.20
2022-07-26T23:43:58.315Z,1.55
2022-07-26T23:46:25.119Z,1.30
2022-07-26T23:48:52.213Z,1.23
2022-07-26T23:51:19.513Z,1.23
2022-07-26T23:53:45.959Z,1.67
2022-07-26T23:56:12.415Z,1.27
2022-07-26T23:58:38.839Z,1.30
